createdAt,value
2022-12-13T00:01:42.652Z,100770.00
2022-12-13T00:04:10.711Z,100773.19
2022-12-13T00:06:37.970Z,100769.16
2022-12-13T00:09:05.339Z,100768.44
2022-12-13T00:11:32.618Z,100775.91
2022-12-13T00:13:59.936Z,100772.38
2022-12-13T00:16:27.840Z,100766.84
2022-12-13T00:18:57.331Z,100770.16
2022-12-13T00:21:29.690Z,100762.19
2022-12-13T00:23:57.118Z,100765.47
2022-12-13T00:26:27.690Z,100762.78
2022-12-13T00:29:00.587Z,100754.41
2022-12-13T00:31:56.732Z,100753.03
2022-12-13T00:34:14.809Z,100746.25
2022-12-13T00:36:41.695Z,100754.59
2022-12-13T00:39:08.589Z,100748.69
2022-12-13T00:41:36.560Z,100749.84
2022-12-13T00:44:04.556Z,100748.66
2022-12-13T00:46:32.029Z,100749.19
2022-12-13T00:49:00.765Z,100742.84
2022-12-13T00:51:29.383Z,100744.66
2022-12-13T00:53:56.232Z,100736.28
2022-12-13T00:56:26.096Z,100732.53
2022-12-13T00:58:53.766Z,100734.59
2022-12-13T01:01:24.751Z,100742.75
2022-12-13T01:03:53.879Z,100732.16
2022-12-13T01:06:29.905Z,100736.38
2022-12-13T01:08:56.896Z,100726.53
2022-12-13T01:11:25.127Z,100737.50
2022-12-13T01:13:51.996Z,100735.34
2022-12-13T01:16:19.000Z,100725.00
2022-12-13T01:18:49.005Z,100729.09
2022-12-13T01:21:17.960Z,100722.94
2022-12-13T01:23:45.390Z,100729.69
2022-12-13T01:26:18.256Z,100729.03
2022-12-13T01:28:45.222Z,100727.28
2022-12-13T01:31:15.471Z,100723.41
2022-12-13T01:33:42.899Z,100727.69
2022-12-13T01:36:17.169Z,100729.88
2022-12-13T01:38:44.024Z,100735.28
2022-12-13T01:41:17.148Z,100735.75
2022-12-13T01:43:45.236Z,100738.44
2022-12-13T01:46:13.560Z,100737.31
2022-12-13T01:49:20.034Z,100736.00
2022-12-13T01:51:52.995Z,100737.31
2022-12-13T01:54:24.595Z,100741.34
2022-12-13T01:57:02.671Z,100746.50
2022-12-13T01:59:34.012Z,100729.19
2022-12-13T02:02:01.314Z,100731.34
2022-12-13T02:04:46.494Z,100734.31
2022-12-13T02:07:23.160Z,100725.47
2022-12-13T02:09:59.296Z,100721.44
2022-12-13T02:12:32.734Z,100721.88
2022-12-13T02:15:03.170Z,100725.41
2022-12-13T02:18:05.957Z,100722.22
2022-12-13T02:21:12.647Z,100718.69
2022-12-13T02:23:48.506Z,100719.06
2022-12-13T02:26:27.278Z,100721.31
2022-12-13T02:29:09.076Z,100716.53
2022-12-13T02:31:39.259Z,100715.66
2022-12-13T02:34:09.855Z,100715.28
2022-12-13T02:37:18.253Z,100717.34
2022-12-13T02:40:01.213Z,100707.31
2022-12-13T02:42:34.219Z,100708.63
2022-12-13T02:45:07.823Z,100709.44
2022-12-13T02:47:38.630Z,100718.31
2022-12-13T02:50:08.317Z,100705.66
2022-12-13T02:52:35.411Z,100710.00
2022-12-13T02:55:07.961Z,100710.19
2022-12-13T02:57:40.462Z,100704.88
2022-12-13T03:00:09.966Z,100698.44
2022-12-13T03:02:51.999Z,100698.47
2022-12-13T03:06:00.832Z,100701.78
2022-12-13T03:08:35.454Z,100689.44
2022-12-13T03:11:09.130Z,100702.03
2022-12-13T03:13:45.118Z,100708.38
2022-12-13T03:16:34.565Z,100693.06
2022-12-13T03:19:03.183Z,100704.34
2022-12-13T03:21:30.427Z,100697.59
2022-12-13T03:23:57.298Z,100702.38
2022-12-13T03:26:25.829Z,100699.31
2022-12-13T03:28:53.008Z,100707.56
2022-12-13T03:31:20.444Z,100699.50
2022-12-13T03:33:47.405Z,100694.81
2022-12-13T03:36:14.580Z,100701.00
2022-12-13T03:38:41.952Z,100704.50
2022-12-13T03:41:14.337Z,100694.06
2022-12-13T03:43:42.142Z,100687.34
2022-12-13T03:46:12.145Z,100684.72
2022-12-13T03:48:39.267Z,100684.81
2022-12-13T03:51:06.320Z,100685.06
2022-12-13T03:53:34.767Z,100679.56
2022-12-13T03:56:05.387Z,100681.81
2022-12-13T03:58:36.568Z,100687.84
2022-12-13T04:01:12.053Z,100668.78
2022-12-13T04:03:40.183Z,100670.28
2022-12-13T04:06:10.524Z,100663.56
2022-12-13T04:08:41.420Z,100654.97
2022-12-13T04:11:27.285Z,100665.75
2022-12-13T04:13:54.666Z,100664.13
2022-12-13T04:16:21.926Z,100659.00
2022-12-13T04:18:50.288Z,100658.00
2022-12-13T04:21:17.222Z,100653.81
2022-12-13T04:23:44.149Z,100659.66
2022-12-13T04:26:10.897Z,100646.78
2022-12-13T04:28:37.654Z,100652.28
2022-12-13T04:31:04.582Z,100645.91
2022-12-13T04:33:32.888Z,100632.28
2022-12-13T04:36:02.100Z,100638.66
2022-12-13T04:38:29.029Z,100636.66
2022-12-13T04:41:06.389Z,100634.09
2022-12-13T04:43:33.334Z,100637.59
2022-12-13T04:46:02.918Z,100632.66
2022-12-13T04:48:30.978Z,100634.09
2022-12-13T04:51:01.648Z,100626.44
2022-12-13T04:53:29.854Z,100631.69
2022-12-13T04:55:59.855Z,100615.94
2022-12-13T04:58:27.619Z,100625.38
2022-12-13T05:00:55.808Z,100624.59
2022-12-13T05:09:17.473Z,100629.13
2022-12-13T05:11:47.085Z,100637.16
2022-12-13T05:14:15.125Z,100633.44
2022-12-13T05:16:52.630Z,100631.31
2022-12-13T05:19:30.546Z,100642.19
2022-12-13T05:22:01.432Z,100641.94
2022-12-13T05:24:33.516Z,100627.41
2022-12-13T05:27:02.212Z,100646.16
2022-12-13T05:29:49.224Z,100627.91
2022-12-13T05:32:16.053Z,100641.94
2022-12-13T05:34:43.845Z,100645.28
2022-12-13T05:37:19.231Z,100648.00
2022-12-13T05:39:46.042Z,100643.13
2022-12-13T05:42:12.946Z,100649.53
2022-12-13T05:44:39.879Z,100645.53
2022-12-13T05:47:06.682Z,100647.03
2022-12-13T05:49:33.532Z,100631.50
2022-12-13T05:52:00.416Z,100646.84
2022-12-13T05:54:27.307Z,100644.47
2022-12-13T05:56:54.223Z,100630.41
2022-12-13T05:59:21.886Z,100639.25
2022-12-13T06:04:35.714Z,100639.25
2022-12-13T06:07:02.762Z,100631.84
2022-12-13T06:10:10.653Z,100635.78
2022-12-13T06:12:43.312Z,100625.06
2022-12-13T06:15:21.707Z,100637.34
2022-12-13T06:17:49.839Z,100635.03
2022-12-13T06:20:24.368Z,100621.84
2022-12-13T06:22:55.054Z,100616.19
2022-12-13T06:25:30.643Z,100620.16
2022-12-13T06:28:01.039Z,100630.69
2022-12-13T06:30:30.405Z,100647.72
2022-12-13T06:41:45.919Z,100639.41
2022-12-13T06:44:12.783Z,100629.63
2022-12-13T06:46:40.964Z,100618.69
2022-12-13T06:49:08.008Z,100616.84
2022-12-13T06:51:35.212Z,100619.16
2022-12-13T06:54:05.318Z,100612.94
2022-12-13T06:56:32.988Z,100606.25
2022-12-13T06:59:01.509Z,100619.13
2022-12-13T07:01:37.050Z,100616.31
2022-12-13T07:04:29.843Z,100613.53
2022-12-13T07:07:01.008Z,100606.81
2022-12-13T07:09:30.245Z,100609.63
2022-12-13T07:11:59.793Z,100611.78
2022-12-13T07:20:36.060Z,100613.25
2022-12-13T07:23:03.263Z,100621.97
2022-12-13T07:25:30.354Z,100630.47
2022-12-13T07:28:02.858Z,100635.56
2022-12-13T07:30:31.623Z,100626.38
2022-12-13T07:32:58.496Z,100626.53
2022-12-13T07:35:25.331Z,100615.41
2022-12-13T07:37:53.649Z,100629.09
2022-12-13T07:40:26.076Z,100622.09
2022-12-13T07:42:56.479Z,100623.66
2022-12-13T07:45:28.348Z,100616.34
2022-12-13T07:47:55.305Z,100629.41
2022-12-13T07:50:26.287Z,100636.47
2022-12-13T07:52:53.574Z,100637.47
2022-12-13T07:55:33.063Z,100647.38
2022-12-13T07:58:08.503Z,100652.19
2022-12-13T08:00:36.882Z,100648.78
2022-12-13T08:03:03.981Z,100651.31
2022-12-13T08:08:22.563Z,100648.28
2022-12-13T08:11:15.521Z,100635.28
2022-12-13T08:13:42.560Z,100651.06
2022-12-13T08:16:28.353Z,100655.09
2022-12-13T08:19:01.928Z,100657.53
2022-12-13T08:21:58.570Z,100663.31
2022-12-13T08:24:29.415Z,100665.94
2022-12-13T08:27:01.532Z,100658.69
2022-12-13T08:29:33.511Z,100669.34
2022-12-13T08:32:07.307Z,100671.53
2022-12-13T08:34:34.102Z,100677.88
2022-12-13T08:37:03.277Z,100662.22
2022-12-13T08:39:36.716Z,100666.53
2022-12-13T08:42:16.524Z,100672.00
2022-12-13T08:44:50.122Z,100674.31
2022-12-13T08:47:22.456Z,100668.56
2022-12-13T08:49:51.016Z,100675.50
2022-12-13T08:52:18.186Z,100685.19
2022-12-13T08:54:45.008Z,100682.38
2022-12-13T08:57:11.792Z,100682.28
2022-12-13T08:59:38.725Z,100688.28
2022-12-13T09:02:05.615Z,100685.56
2022-12-13T09:04:32.624Z,100685.69
2022-12-13T09:07:01.266Z,100685.84
2022-12-13T09:09:29.863Z,100681.63
2022-12-13T09:11:59.460Z,100683.53
2022-12-13T09:14:33.965Z,100682.75
2022-12-13T09:17:03.644Z,100697.19
2022-12-13T09:19:37.105Z,100677.97
2022-12-13T09:22:05.272Z,100673.41
2022-12-13T09:24:36.262Z,100693.09
2022-12-13T09:27:09.414Z,100689.16
2022-12-13T09:29:38.479Z,100691.84
2022-12-13T09:32:06.155Z,100691.47
2022-12-13T09:34:33.307Z,100685.13
2022-12-13T09:37:01.704Z,100694.25
2022-12-13T09:39:29.626Z,100689.69
2022-12-13T09:42:00.936Z,100693.03
2022-12-13T09:44:44.087Z,100687.19
2022-12-13T09:47:35.226Z,100679.16
2022-12-13T09:50:07.003Z,100680.22
2022-12-13T09:52:39.577Z,100683.91
2022-12-13T09:55:22.192Z,100690.13
2022-12-13T09:57:51.901Z,100675.81
2022-12-13T10:00:21.832Z,100667.47
2022-12-13T10:02:55.212Z,100666.16
2022-12-13T10:05:34.554Z,100666.59
2022-12-13T10:08:16.884Z,100673.06
2022-12-13T10:10:44.541Z,100665.06
2022-12-13T10:13:21.063Z,100663.75
2022-12-13T10:15:54.147Z,100659.25
2022-12-13T10:18:36.321Z,100648.66
2022-12-13T10:21:27.254Z,100657.00
2022-12-13T10:26:42.553Z,100641.75
2022-12-13T10:29:11.014Z,100648.72
2022-12-13T10:31:46.153Z,100642.38
2022-12-13T10:34:36.212Z,100634.78
2022-12-13T10:37:25.221Z,100633.19
2022-12-13T10:39:52.104Z,100629.19
2022-12-13T10:42:25.811Z,100621.25
2022-12-13T10:45:10.806Z,100616.31
2022-12-13T10:47:38.017Z,100611.47
2022-12-13T10:50:05.107Z,100618.66
2022-12-13T10:52:43.221Z,100620.00
2022-12-13T10:55:32.980Z,100620.66
2022-12-13T10:58:02.769Z,100615.13
2022-12-13T11:00:41.504Z,100609.16
2022-12-13T11:03:14.686Z,100602.34
2022-12-13T11:05:45.685Z,100605.69
2022-12-13T11:08:23.965Z,100592.06
2022-12-13T11:10:59.095Z,100596.03
2022-12-13T11:13:55.509Z,100595.56
2022-12-13T11:16:35.604Z,100597.97
2022-12-13T11:19:08.862Z,100605.97
2022-12-13T11:21:37.730Z,100590.25
2022-12-13T11:24:07.664Z,100592.53
2022-12-13T11:26:36.914Z,100570.41
2022-12-13T11:29:43.588Z,100576.31
2022-12-13T11:32:22.484Z,100571.22
2022-12-13T11:34:56.518Z,100573.50
2022-12-13T11:37:28.991Z,100572.50
2022-12-13T11:40:24.483Z,100558.56
2022-12-13T11:42:59.481Z,100562.38
2022-12-13T11:45:36.389Z,100554.59
2022-12-13T11:48:26.311Z,100541.81
2022-12-13T11:50:55.257Z,100551.19
2022-12-13T11:53:28.563Z,100557.84
2022-12-13T11:56:11.556Z,100557.28
2022-12-13T11:59:03.903Z,100543.56
2022-12-13T12:01:48.120Z,100535.34
2022-12-13T12:05:00.540Z,100534.13
2022-12-13T12:07:34.739Z,100519.59
2022-12-13T12:10:32.226Z,100515.06
2022-12-13T12:13:08.827Z,100516.03
2022-12-13T12:15:42.260Z,100507.25
2022-12-13T12:18:19.693Z,100505.44
2022-12-13T12:21:04.802Z,100521.81
2022-12-13T12:23:52.421Z,100533.81
2022-12-13T12:26:24.473Z,100529.91
2022-12-13T12:29:01.926Z,100543.88
2022-12-13T12:31:50.690Z,100531.78
2022-12-13T12:34:29.942Z,100531.28
2022-12-13T12:37:06.926Z,100527.22
2022-12-13T12:39:44.357Z,100522.63
2022-12-13T12:42:25.458Z,100526.44
2022-12-13T12:45:05.828Z,100510.25
2022-12-13T12:48:38.572Z,100506.00
2022-12-13T12:51:04.801Z,100500.81
2022-12-13T12:53:45.383Z,100490.53
2022-12-13T12:56:50.823Z,100488.84
2022-12-13T12:59:37.222Z,100478.31
2022-12-13T13:02:18.530Z,100475.50
2022-12-13T13:04:52.789Z,100475.47
2022-12-13T13:07:28.838Z,100471.50
2022-12-13T13:09:57.257Z,100468.34
2022-12-13T13:12:29.097Z,100469.16
2022-12-13T13:15:01.147Z,100469.16
2022-12-13T13:17:28.122Z,100481.06
2022-12-13T13:20:14.183Z,100474.19
2022-12-13T13:22:42.962Z,100456.53
2022-12-13T13:25:32.790Z,100473.53
2022-12-13T13:28:15.675Z,100466.97
2022-12-13T13:31:26.862Z,100468.53
2022-12-13T13:34:24.657Z,100459.69
2022-12-13T13:36:53.350Z,100460.69
2022-12-13T13:39:38.526Z,100464.69
2022-12-13T13:42:14.660Z,100454.28
2022-12-13T13:44:54.091Z,100453.31
2022-12-13T13:47:21.060Z,100447.72
2022-12-13T13:50:08.072Z,100442.56
2022-12-13T13:52:44.283Z,100438.06
2022-12-13T13:55:21.721Z,100431.56
2022-12-13T13:58:09.736Z,100432.44
2022-12-13T14:01:24.060Z,100433.50
2022-12-13T14:04:22.694Z,100430.31
2022-12-13T14:07:00.212Z,100423.19
2022-12-13T14:10:03.825Z,100419.53
2022-12-13T14:12:44.095Z,100411.94
2022-12-13T14:16:01.292Z,100416.00
2022-12-13T14:19:07.980Z,100419.19
2022-12-13T14:21:41.036Z,100412.28
2022-12-13T14:24:39.615Z,100411.78
2022-12-13T14:27:23.074Z,100410.09
2022-12-13T14:29:58.653Z,100410.66
2022-12-13T14:32:33.408Z,100402.16
2022-12-13T14:35:24.740Z,100400.00
2022-12-13T14:37:57.891Z,100395.97
2022-12-13T14:40:32.871Z,100395.28
2022-12-13T14:43:00.432Z,100386.00
2022-12-13T14:45:38.535Z,100386.84
2022-12-13T14:50:59.645Z,100381.97
2022-12-13T14:53:41.567Z,100388.69
2022-12-13T14:56:27.835Z,100384.00
2022-12-13T14:59:16.168Z,100364.91
2022-12-13T15:02:04.433Z,100361.03
2022-12-13T15:04:38.589Z,100350.63
2022-12-13T15:07:30.793Z,100380.03
2022-12-13T15:10:01.081Z,100360.78
2022-12-13T15:12:35.503Z,100363.69
2022-12-13T15:15:25.978Z,100360.56
2022-12-13T15:18:25.349Z,100374.06
2022-12-13T15:21:02.420Z,100359.09
2022-12-13T15:23:49.085Z,100357.84
2022-12-13T15:26:28.621Z,100366.47
2022-12-13T15:29:10.252Z,100355.75
2022-12-13T15:31:43.195Z,100358.00
2022-12-13T15:34:39.064Z,100361.75
2022-12-13T15:37:28.370Z,100366.97
2022-12-13T15:40:02.196Z,100361.59
2022-12-13T15:42:32.798Z,100365.97
2022-12-13T15:45:20.529Z,100359.50
2022-12-13T15:47:47.814Z,100356.59
2022-12-13T15:50:36.529Z,100355.47
2022-12-13T15:53:07.119Z,100355.34
2022-12-13T15:55:35.780Z,100353.31
2022-12-13T15:58:03.411Z,100349.81
2022-12-13T16:00:34.605Z,100350.34
2022-12-13T16:03:13.059Z,100344.63
2022-12-13T16:05:50.155Z,100336.31
2022-12-13T16:08:32.031Z,100337.34
2022-12-13T16:11:00.373Z,100333.63
2022-12-13T16:13:33.408Z,100336.22
2022-12-13T16:16:35.221Z,100344.53
2022-12-13T16:19:17.720Z,100346.69
2022-12-13T16:21:48.488Z,100335.38
2022-12-13T16:24:15.543Z,100334.94
2022-12-13T16:27:22.592Z,100334.19
2022-12-13T16:29:51.659Z,100330.56
2022-12-13T16:32:22.920Z,100325.13
2022-12-13T16:34:50.442Z,100332.25
2022-12-13T16:37:27.584Z,100318.72
2022-12-13T16:40:02.216Z,100321.06
2022-12-13T16:42:30.794Z,100332.78
2022-12-13T16:45:18.127Z,100324.25
2022-12-13T16:47:49.248Z,100334.47
2022-12-13T16:50:21.057Z,100336.06
2022-12-13T16:52:49.327Z,100333.72
2022-12-13T16:55:18.810Z,100332.34
2022-12-13T16:57:56.058Z,100337.13
2022-12-13T17:00:24.241Z,100323.94
2022-12-13T17:02:53.828Z,100334.47
2022-12-13T17:05:22.165Z,100340.50
2022-12-13T17:07:55.942Z,100319.25
2022-12-13T17:10:25.616Z,100321.88
2022-12-13T17:13:06.672Z,100318.66
2022-12-13T17:15:47.406Z,100326.25
2022-12-13T17:18:42.103Z,100326.59
2022-12-13T17:21:11.548Z,100318.31
2022-12-13T17:23:41.261Z,100332.22
2022-12-13T17:26:09.726Z,100337.84
2022-12-13T17:28:37.117Z,100337.88
2022-12-13T17:31:15.119Z,100336.03
2022-12-13T17:33:44.971Z,100338.00
2022-12-13T17:36:14.843Z,100323.56
2022-12-13T17:38:49.468Z,100325.31
2022-12-13T17:41:37.738Z,100325.31
2022-12-13T17:47:05.965Z,100313.44
2022-12-13T17:49:53.201Z,100306.59
2022-12-13T17:52:23.266Z,100313.44
2022-12-13T17:54:50.686Z,100306.50
2022-12-13T17:57:17.527Z,100315.16
2022-12-13T17:59:44.621Z,100311.59
2022-12-13T18:02:39.278Z,100305.69
2022-12-13T18:05:08.752Z,100299.13
2022-12-13T18:07:40.780Z,100282.84
2022-12-13T18:13:18.029Z,100286.56
2022-12-13T18:15:49.853Z,100277.66
2022-12-13T18:18:17.783Z,100269.91
2022-12-13T18:20:46.391Z,100269.78
2022-12-13T18:23:18.365Z,100256.56
2022-12-13T18:25:46.071Z,100252.47
2022-12-13T18:28:14.519Z,100265.06
2022-12-13T18:30:42.289Z,100260.13
2022-12-13T18:33:15.417Z,100241.91
2022-12-13T18:35:43.606Z,100256.78
2022-12-13T18:38:10.842Z,100246.38
2022-12-13T18:40:39.051Z,100255.97
2022-12-13T18:43:10.056Z,100246.09
2022-12-13T18:45:37.251Z,100247.72
2022-12-13T18:48:08.170Z,100235.88
2022-12-13T18:50:38.340Z,100222.63
2022-12-13T18:53:07.192Z,100231.63
2022-12-13T18:55:45.162Z,100219.78
2022-12-13T18:58:16.084Z,100223.34
2022-12-13T19:00:45.526Z,100215.78
2022-12-13T19:03:15.350Z,100219.38
2022-12-13T19:05:43.445Z,100227.41
2022-12-13T19:08:16.875Z,100226.56
2022-12-13T19:10:46.998Z,100218.19
2022-12-13T19:13:17.485Z,100205.72
2022-12-13T19:22:01.407Z,100194.44
2022-12-13T19:24:50.202Z,100201.06
2022-12-13T19:27:17.440Z,100200.53
2022-12-13T19:29:46.825Z,100205.38
2022-12-13T19:32:14.676Z,100208.66
2022-12-13T19:34:53.666Z,100211.31
2022-12-13T19:37:21.015Z,100202.38
2022-12-13T19:39:47.912Z,100203.28
2022-12-13T19:42:15.987Z,100192.84
2022-12-13T19:44:43.010Z,100199.75
2022-12-13T19:55:49.768Z,100175.69
2022-12-13T19:58:44.008Z,100172.75
2022-12-13T20:12:54.935Z,100146.78
2022-12-13T20:15:37.341Z,100146.19
2022-12-13T20:18:09.792Z,100134.59
2022-12-13T20:21:02.496Z,100141.19
2022-12-13T20:23:38.627Z,100145.56
2022-12-13T20:26:13.319Z,100142.88
2022-12-13T20:28:58.975Z,100138.41
2022-12-13T20:31:51.677Z,100128.63
2022-12-13T20:40:01.994Z,100116.50
2022-12-13T20:42:30.693Z,100119.78
2022-12-13T20:45:00.084Z,100106.22
2022-12-13T20:47:28.214Z,100097.56
2022-12-13T20:49:55.531Z,100099.88
2022-12-13T20:55:12.268Z,100077.09
2022-12-13T20:57:50.035Z,100078.06
2022-12-13T21:00:18.459Z,100089.03
2022-12-13T21:02:46.202Z,100093.72
2022-12-13T21:05:19.097Z,100086.81
2022-12-13T21:08:07.005Z,100083.91
2022-12-13T21:10:37.819Z,100100.41
2022-12-13T21:13:09.041Z,100088.09
2022-12-13T21:15:39.704Z,100086.31
2022-12-13T21:18:08.849Z,100095.72
2022-12-13T21:20:43.887Z,100077.88
2022-12-13T21:23:12.819Z,100078.53
2022-12-13T21:25:40.480Z,100093.09
2022-12-13T21:28:07.964Z,100087.91
2022-12-13T21:30:35.218Z,100082.22
2022-12-13T21:33:03.680Z,100073.50
2022-12-13T21:35:31.427Z,100084.94
2022-12-13T21:38:03.702Z,100088.03
2022-12-13T21:40:34.448Z,100084.88
2022-12-13T21:43:01.676Z,100058.50
2022-12-13T21:45:32.639Z,100078.00
2022-12-13T21:48:01.867Z,100070.94
2022-12-13T21:50:31.720Z,100062.47
2022-12-13T21:53:21.192Z,100051.38
2022-12-13T21:55:52.392Z,100058.78
2022-12-13T21:58:44.748Z,100053.00
2022-12-13T22:01:18.401Z,100047.72
2022-12-13T22:03:45.619Z,100042.16
2022-12-13T22:06:13.085Z,100042.94
2022-12-13T22:08:39.997Z,100049.16
2022-12-13T22:11:21.302Z,100047.59
2022-12-13T22:14:02.715Z,100033.13
2022-12-13T22:16:29.974Z,100033.84
2022-12-13T22:18:57.311Z,100026.28
2022-12-13T22:21:24.492Z,100027.84
2022-12-13T22:23:55.737Z,100027.72
2022-12-13T22:26:24.091Z,100018.41
2022-12-13T22:28:52.364Z,100024.47
2022-12-13T22:31:19.542Z,100033.19
2022-12-13T22:33:46.347Z,100027.66
2022-12-13T22:36:13.793Z,100025.72
2022-12-13T22:38:40.814Z,100023.63
2022-12-13T22:41:16.964Z,100024.69
2022-12-13T22:43:44.662Z,100022.00
2022-12-13T22:46:17.649Z,100018.75
2022-12-13T22:48:48.280Z,100024.59
2022-12-13T22:51:16.993Z,100022.09
2022-12-13T22:53:45.449Z,100009.28
2022-12-13T22:56:26.327Z,100017.47
2022-12-13T22:58:55.814Z,100029.88
2022-12-13T23:01:28.003Z,100021.00
2022-12-13T23:03:59.156Z,100033.25
2022-12-13T23:06:32.850Z,100019.78
2022-12-13T23:09:02.059Z,100034.63
2022-12-13T23:11:48.607Z,100015.25
2022-12-13T23:14:29.349Z,100016.09
2022-12-13T23:17:04.983Z,100029.75
2022-12-13T23:19:50.980Z,100013.38
2022-12-13T23:22:22.172Z,100014.03
2022-12-13T23:24:55.436Z,100026.53
2022-12-13T23:27:23.564Z,100025.84
2022-12-13T23:29:50.623Z,100014.59
2022-12-13T23:32:17.677Z,100010.56
2022-12-13T23:34:44.458Z,100016.38
2022-12-13T23:37:11.704Z,100017.22
2022-12-13T23:39:38.944Z,100012.81
2022-12-13T23:42:06.307Z,100017.66
2022-12-13T23:44:33.446Z,100017.53
2022-12-13T23:47:00.434Z,100006.47
2022-12-13T23:49:27.307Z,100004.41
2022-12-13T23:51:54.334Z,100005.53
2022-12-13T23:54:21.321Z,100005.75
2022-12-13T23:56:51.174Z,100000.19
2022-12-13T23:59:21.678Z,99998.03
